createdAt,value
2017-12-03T00:00:13.582Z,10.65
2017-12-03T00:02:41.152Z,9.55
2017-12-03T00:05:08.689Z,9.37
2017-12-03T00:07:36.253Z,8.93
2017-12-03T00:10:03.790Z,9.00
2017-12-03T00:12:32.124Z,10.45
2017-12-03T00:14:59.653Z,8.98
2017-12-03T00:17:27.210Z,8.48
2017-12-03T00:19:54.752Z,10.60
2017-12-03T00:22:22.307Z,9.50
2017-12-03T00:24:49.862Z,10.32
2017-12-03T00:27:18.194Z,10.70
2017-12-03T00:29:45.740Z,11.43
2017-12-03T00:32:13.307Z,10.35
2017-12-03T00:34:40.838Z,10.87
2017-12-03T00:37:08.538Z,9.93
2017-12-03T00:39:36.334Z,9.15
2017-12-03T00:42:04.674Z,8.68
2017-12-03T00:44:32.220Z,8.73
2017-12-03T00:46:59.812Z,8.05
2017-12-03T00:49:27.462Z,8.63
2017-12-03T00:51:55.024Z,8.93
2017-12-03T00:54:22.621Z,9.33
2017-12-03T00:56:50.956Z,10.02
2017-12-03T00:59:18.494Z,9.10
2017-12-03T01:01:46.058Z,8.00
2017-12-03T01:04:13.591Z,10.13
2017-12-03T01:06:41.919Z,8.70
2017-12-03T01:09:09.460Z,8.70
2017-12-03T01:11:37.022Z,8.23
2017-12-03T01:14:04.566Z,8.27
2017-12-03T01:16:32.358Z,9.15
2017-12-03T01:18:59.908Z,8.90
2017-12-03T01:21:27.469Z,8.40
2017-12-03T01:23:55.011Z,8.95
2017-12-03T01:26:22.574Z,8.85
2017-12-03T01:28:50.115Z,8.82
2017-12-03T01:31:17.674Z,9.60
2017-12-03T01:33:45.980Z,8.02
2017-12-03T01:36:13.544Z,9.30
2017-12-03T01:38:41.280Z,9.60
2017-12-03T01:41:08.870Z,10.13
2017-12-03T01:43:36.429Z,9.00
2017-12-03T01:46:03.962Z,9.35
2017-12-03T01:48:31.522Z,9.82
2017-12-03T01:50:59.066Z,9.20
2017-12-03T01:53:27.582Z,8.45
2017-12-03T01:55:55.118Z,8.40
2017-12-03T01:58:23.442Z,8.40
2017-12-03T02:00:50.981Z,8.00
2017-12-03T02:03:18.560Z,8.73
2017-12-03T02:05:46.107Z,9.80
2017-12-03T02:08:13.671Z,10.77
2017-12-03T02:10:41.206Z,9.27
2017-12-03T02:13:08.762Z,8.23
2017-12-03T02:15:37.050Z,8.97
2017-12-03T02:18:04.619Z,8.77
2017-12-03T02:20:32.163Z,9.10
2017-12-03T02:22:59.731Z,9.75
2017-12-03T02:25:27.271Z,9.57
2017-12-03T02:27:54.839Z,7.75
2017-12-03T02:30:22.374Z,9.27
2017-12-03T02:32:50.718Z,9.60
2017-12-03T02:35:18.245Z,8.60
2017-12-03T02:37:45.808Z,7.60
2017-12-03T02:40:13.344Z,9.60
2017-12-03T02:42:41.666Z,9.55
2017-12-03T02:45:09.974Z,8.52
2017-12-03T02:47:37.546Z,9.35
2017-12-03T02:50:05.074Z,8.97
2017-12-03T02:52:32.615Z,9.30
2017-12-03T02:55:00.186Z,8.67
2017-12-03T02:57:27.717Z,8.68
2017-12-03T02:59:55.275Z,8.35
2017-12-03T03:02:22.816Z,8.05
2017-12-03T03:04:51.148Z,8.25
2017-12-03T03:07:18.683Z,7.80
2017-12-03T03:09:46.248Z,8.80
2017-12-03T03:12:13.783Z,8.38
2017-12-03T03:14:41.356Z,9.75
2017-12-03T03:17:08.895Z,9.82
2017-12-03T03:19:37.232Z,8.60
2017-12-03T03:22:04.767Z,9.73
2017-12-03T03:24:32.327Z,8.10
2017-12-03T03:26:59.866Z,10.30
2017-12-03T03:29:27.426Z,9.75
2017-12-03T03:31:54.963Z,11.43
2017-12-03T03:34:23.290Z,8.93
2017-12-03T03:36:50.823Z,9.73
2017-12-03T03:39:18.435Z,9.70
2017-12-03T03:41:45.984Z,9.10
2017-12-03T03:44:13.554Z,9.15
2017-12-03T03:46:41.098Z,8.63
2017-12-03T03:49:08.658Z,8.50
2017-12-03T03:51:36.199Z,9.90
2017-12-03T03:54:03.734Z,9.45
2017-12-03T03:56:31.297Z,8.90
2017-12-03T03:58:58.851Z,8.93
2017-12-03T04:01:26.446Z,8.85
2017-12-03T04:03:53.982Z,9.75
2017-12-03T04:06:21.546Z,8.40
2017-12-03T04:08:49.079Z,9.45
2017-12-03T04:11:17.403Z,9.80
2017-12-03T04:13:50.875Z,8.85
2017-12-03T04:16:18.444Z,10.05
2017-12-03T04:18:45.986Z,9.98
2017-12-03T04:21:14.311Z,9.60
2017-12-03T04:23:41.843Z,9.90
2017-12-03T04:26:09.425Z,8.50
2017-12-03T04:28:36.962Z,8.95
2017-12-03T04:31:04.527Z,10.35
2017-12-03T04:33:32.066Z,7.97
2017-12-03T04:35:59.714Z,8.60
2017-12-03T04:38:28.027Z,7.50
2017-12-03T04:40:55.592Z,9.02
2017-12-03T04:43:23.146Z,10.07
2017-12-03T04:45:50.717Z,9.45
2017-12-03T04:48:18.250Z,9.38
2017-12-03T04:50:45.823Z,10.15
2017-12-03T04:53:13.358Z,8.63
2017-12-03T04:55:41.690Z,7.97
2017-12-03T04:58:09.278Z,8.02
2017-12-03T05:00:36.825Z,8.63
2017-12-03T05:03:04.386Z,9.00
2017-12-03T05:05:31.931Z,8.90
2017-12-03T05:07:59.494Z,8.38
2017-12-03T05:10:27.028Z,8.45
2017-12-03T05:12:54.594Z,8.50
2017-12-03T05:15:22.138Z,9.45
2017-12-03T05:17:49.694Z,8.52
2017-12-03T05:20:17.239Z,7.73
2017-12-03T05:22:44.794Z,9.53
2017-12-03T05:25:13.097Z,7.90
2017-12-03T05:27:40.659Z,8.50
2017-12-03T05:30:08.195Z,9.00
2017-12-03T05:32:36.513Z,9.82
2017-12-03T05:35:04.046Z,8.45
2017-12-03T05:37:31.614Z,9.05
2017-12-03T05:39:59.146Z,9.90
2017-12-03T05:42:27.479Z,9.55
2017-12-03T05:44:55.797Z,8.93
2017-12-03T05:47:24.126Z,8.88
2017-12-03T05:49:51.663Z,8.13
2017-12-03T05:52:19.227Z,8.82
2017-12-03T05:54:46.760Z,8.60
2017-12-03T05:57:15.090Z,10.23
2017-12-03T05:59:42.627Z,9.75
2017-12-03T06:02:10.191Z,10.70
2017-12-03T06:04:37.734Z,11.60
2017-12-03T06:07:05.274Z,11.20
2017-12-03T06:09:33.602Z,11.00
2017-12-03T06:12:01.143Z,12.10
2017-12-03T06:14:28.715Z,11.40
2017-12-03T06:16:56.258Z,11.80
2017-12-03T06:19:23.822Z,12.32
2017-12-03T06:21:51.362Z,11.43
2017-12-03T06:24:18.925Z,9.90
2017-12-03T06:26:46.459Z,10.80
2017-12-03T06:29:14.797Z,11.25
2017-12-03T06:51:15.782Z,11.30
2017-12-03T06:53:43.354Z,10.88
2017-12-03T06:56:10.901Z,11.10
2017-12-03T06:58:38.477Z,11.20
2017-12-03T07:01:06.026Z,12.20
2017-12-03T07:03:33.607Z,10.30
2017-12-03T07:06:01.147Z,9.68
2017-12-03T07:08:28.707Z,9.40
2017-12-03T07:10:56.263Z,10.00
2017-12-03T07:13:23.824Z,11.70
2017-12-03T07:15:51.372Z,10.43
2017-12-03T07:18:18.938Z,10.60
2017-12-03T07:20:46.477Z,11.03
2017-12-03T07:23:14.039Z,10.90
2017-12-03T07:25:41.585Z,11.70
2017-12-03T07:28:09.145Z,11.00
2017-12-03T07:30:58.339Z,10.38
2017-12-03T07:33:25.918Z,10.65
2017-12-03T07:35:53.462Z,12.30
2017-12-03T07:38:21.028Z,11.57
2017-12-03T07:40:48.575Z,11.38
2017-12-03T07:43:16.134Z,10.10
2017-12-03T07:45:43.676Z,11.88
2017-12-03T07:48:11.233Z,10.63
2017-12-03T07:50:38.779Z,11.82
2017-12-03T07:53:06.358Z,10.95
2017-12-03T07:55:33.898Z,12.65
2017-12-03T07:58:01.472Z,11.95
2017-12-03T08:00:29.018Z,11.15
2017-12-03T08:02:56.586Z,11.23
2017-12-03T08:05:24.122Z,12.23
2017-12-03T08:07:52.467Z,12.93
2017-12-03T08:10:20.018Z,10.60
2017-12-03T08:12:47.581Z,12.35
2017-12-03T08:15:15.121Z,12.20
2017-12-03T08:17:42.694Z,13.27
2017-12-03T08:20:10.235Z,11.30
2017-12-03T08:22:37.915Z,11.45
2017-12-03T08:25:05.479Z,12.68
2017-12-03T08:27:33.014Z,11.00
2017-12-03T08:30:00.579Z,11.85
2017-12-03T08:32:28.118Z,11.75
2017-12-03T08:34:55.689Z,12.98
2017-12-03T08:37:23.230Z,11.85
2017-12-03T08:39:51.563Z,14.05
2017-12-03T08:42:19.109Z,16.00
2017-12-03T08:44:46.683Z,19.73
2017-12-03T08:47:14.240Z,14.60
2017-12-03T08:49:41.803Z,13.20
2017-12-03T08:52:09.346Z,13.45
2017-12-03T08:54:36.910Z,14.57
2017-12-03T08:57:04.471Z,14.05
2017-12-03T08:59:32.037Z,13.07
2017-12-03T09:01:59.579Z,12.85
2017-12-03T09:04:27.145Z,13.23
2017-12-03T09:06:54.671Z,13.80
2017-12-03T09:09:23.000Z,14.50
2017-12-03T09:11:50.610Z,14.90
2017-12-03T09:14:18.922Z,14.77
2017-12-03T09:16:46.463Z,12.80
2017-12-03T09:19:14.026Z,13.60
2017-12-03T09:21:41.606Z,14.32
2017-12-03T09:24:09.169Z,14.90
2017-12-03T09:26:36.761Z,12.43
2017-12-03T09:29:04.338Z,12.10
2017-12-03T09:31:32.733Z,12.80
2017-12-03T09:34:00.296Z,12.02
2017-12-03T09:36:27.835Z,13.00
2017-12-03T09:38:56.175Z,13.75
2017-12-03T09:41:23.706Z,12.63
2017-12-03T09:43:51.285Z,13.23
2017-12-03T09:46:18.819Z,12.50
2017-12-03T09:48:46.384Z,13.90
2017-12-03T09:51:13.940Z,13.02
2017-12-03T09:53:41.518Z,13.62
2017-12-03T09:56:09.057Z,13.73
2017-12-03T09:58:36.624Z,14.43
2017-12-03T10:01:04.166Z,14.68
2017-12-03T10:03:32.485Z,13.33
2017-12-03T10:06:00.032Z,15.27
2017-12-03T10:08:27.607Z,14.05
2017-12-03T10:10:55.162Z,12.97
2017-12-03T10:13:23.497Z,13.62
2017-12-03T10:15:51.809Z,13.88
2017-12-03T10:18:19.379Z,15.77
2017-12-03T10:23:40.067Z,14.75
2017-12-03T10:26:07.612Z,13.80
2017-12-03T10:28:35.947Z,15.17
2017-12-03T10:31:03.498Z,14.55
2017-12-03T10:33:31.830Z,15.80
2017-12-03T10:36:00.146Z,15.00
2017-12-03T10:38:27.714Z,14.30
2017-12-03T10:40:55.254Z,15.07
2017-12-03T10:43:22.826Z,15.48
2017-12-03T10:45:50.367Z,15.07
2017-12-03T10:48:17.926Z,15.43
2017-12-03T10:50:45.479Z,14.73
2017-12-03T10:53:13.027Z,15.10
2017-12-03T10:55:41.354Z,16.90
2017-12-03T10:58:08.895Z,14.53
2017-12-03T11:00:36.469Z,15.00
2017-12-03T11:03:04.007Z,15.73
2017-12-03T11:05:31.578Z,15.18
2017-12-03T11:07:59.118Z,15.40
2017-12-03T11:10:26.695Z,15.35
2017-12-03T11:12:54.251Z,16.87
2017-12-03T11:15:21.818Z,17.30
2017-12-03T11:17:49.364Z,16.70
2017-12-03T11:20:16.938Z,17.23
2017-12-03T11:22:44.482Z,15.73
2017-12-03T11:25:12.055Z,15.52
2017-12-03T11:27:39.606Z,16.50
2017-12-03T11:30:07.172Z,15.13
2017-12-03T11:32:34.711Z,17.47
2017-12-03T11:35:02.276Z,17.90
2017-12-03T11:37:29.816Z,15.67
2017-12-03T11:39:58.193Z,16.73
2017-12-03T11:42:25.711Z,14.90
2017-12-03T11:44:53.271Z,15.23
2017-12-03T11:47:20.818Z,15.02
2017-12-03T11:49:48.381Z,15.52
2017-12-03T11:52:16.693Z,15.20
2017-12-03T11:54:44.254Z,13.67
2017-12-03T11:57:11.794Z,15.53
2017-12-03T11:59:39.354Z,16.52
2017-12-03T12:02:06.892Z,16.45
2017-12-03T12:04:34.454Z,15.23
2017-12-03T12:07:01.996Z,15.63
2017-12-03T12:09:29.558Z,15.90
2017-12-03T12:11:57.099Z,14.98
2017-12-03T12:14:25.427Z,14.05
2017-12-03T12:16:52.977Z,14.00
2017-12-03T12:19:20.535Z,15.23
2017-12-03T12:21:48.066Z,14.13
2017-12-03T12:24:15.633Z,15.40
2017-12-03T12:26:43.173Z,14.25
2017-12-03T12:29:11.508Z,13.90
2017-12-03T12:31:39.068Z,15.33
2017-12-03T12:34:06.636Z,15.88
2017-12-03T12:36:34.174Z,15.90
2017-12-03T12:39:01.743Z,13.60
2017-12-03T12:41:29.296Z,16.25
2017-12-03T12:43:56.863Z,15.70
2017-12-03T12:46:24.412Z,17.20
2017-12-03T12:48:51.974Z,15.13
2017-12-03T12:51:19.520Z,16.77
2017-12-03T12:53:47.063Z,15.53
2017-12-03T12:56:14.630Z,14.30
2017-12-03T12:58:42.170Z,15.37
2017-12-03T13:01:09.742Z,16.77
2017-12-03T13:03:37.286Z,15.90
2017-12-03T13:06:05.618Z,15.38
2017-12-03T13:08:33.164Z,13.77
2017-12-03T13:11:00.733Z,14.55
2017-12-03T13:13:28.274Z,14.60
2017-12-03T13:15:55.834Z,15.73
2017-12-03T13:18:23.370Z,15.45
2017-12-03T13:20:50.951Z,15.32
2017-12-03T13:23:18.486Z,15.02
2017-12-03T13:25:46.059Z,17.40
2017-12-03T13:28:13.598Z,18.83
2017-12-03T13:30:41.933Z,19.50
2017-12-03T13:33:09.487Z,22.02
2017-12-03T13:35:37.052Z,20.80
2017-12-03T13:38:04.596Z,17.90
2017-12-03T13:40:32.163Z,20.08
2017-12-03T13:42:59.708Z,20.55
2017-12-03T13:45:27.277Z,19.20
2017-12-03T13:47:54.819Z,20.17
2017-12-03T13:50:22.386Z,20.00
2017-12-03T13:52:49.926Z,19.98
2017-12-03T13:55:17.500Z,20.65
2017-12-03T13:57:45.042Z,22.80
2017-12-03T14:00:13.374Z,24.48
2017-12-03T14:02:40.921Z,18.87
2017-12-03T14:05:08.495Z,22.17
2017-12-03T14:07:36.048Z,24.05
2017-12-03T14:10:03.614Z,21.23
2017-12-03T14:12:31.164Z,20.50
2017-12-03T14:14:58.743Z,20.00
2017-12-03T14:17:26.290Z,21.00
2017-12-03T14:19:53.859Z,19.73
2017-12-03T14:22:21.401Z,18.33
2017-12-03T14:24:48.975Z,19.40
2017-12-03T14:27:16.527Z,20.85
2017-12-03T14:29:44.093Z,23.40
2017-12-03T14:32:11.646Z,20.23
2017-12-03T14:34:39.219Z,17.80
2017-12-03T14:37:06.751Z,18.58
2017-12-03T14:39:34.315Z,21.70
2017-12-03T14:42:01.862Z,20.27
2017-12-03T14:44:29.434Z,21.40
2017-12-03T14:46:56.980Z,18.77
2017-12-03T14:49:24.555Z,19.50
2017-12-03T14:51:52.091Z,21.92
2017-12-03T14:54:19.670Z,19.10
2017-12-03T14:56:47.216Z,20.90
2017-12-03T14:59:14.760Z,19.87
2017-12-03T15:01:42.335Z,21.27
2017-12-03T15:04:09.885Z,20.52
2017-12-03T15:06:37.451Z,21.58
2017-12-03T15:09:04.990Z,19.42
2017-12-03T15:11:33.352Z,17.62
2017-12-03T15:14:00.890Z,18.17
2017-12-03T15:16:28.463Z,19.70
2017-12-03T15:18:56.008Z,18.27
2017-12-03T15:21:23.582Z,21.60
2017-12-03T15:23:51.132Z,20.30
2017-12-03T15:26:18.692Z,18.93
2017-12-03T15:28:46.230Z,23.58
2017-12-03T15:31:13.801Z,21.15
2017-12-03T15:33:41.333Z,20.27
2017-12-03T15:36:08.906Z,21.37
2017-12-03T15:38:36.467Z,21.70
2017-12-03T15:41:04.035Z,21.73
2017-12-03T15:43:31.577Z,21.40
2017-12-03T15:45:59.136Z,21.27
2017-12-03T15:48:26.681Z,20.70
2017-12-03T15:50:54.248Z,25.40
2017-12-03T15:53:21.783Z,22.58
2017-12-03T15:55:50.109Z,21.83
2017-12-03T15:58:17.683Z,23.30
2017-12-03T16:00:45.242Z,21.25
2017-12-03T16:03:12.783Z,22.85
2017-12-03T16:05:40.348Z,23.20
2017-12-03T16:08:07.894Z,22.23
2017-12-03T16:10:35.551Z,23.40
2017-12-03T16:13:03.097Z,22.83
2017-12-03T16:15:30.666Z,20.90
2017-12-03T16:17:58.207Z,20.48
2017-12-03T16:20:26.546Z,21.40
2017-12-03T16:22:54.087Z,23.62
2017-12-03T16:25:21.667Z,21.87
2017-12-03T16:27:49.211Z,23.90
2017-12-03T16:30:16.783Z,21.17
2017-12-03T16:32:44.322Z,21.98
2017-12-03T16:35:11.887Z,23.52
2017-12-03T16:37:39.430Z,24.60
2017-12-03T16:40:07.045Z,24.50
2017-12-03T16:42:34.586Z,23.58
2017-12-03T16:45:02.183Z,24.65
2017-12-03T16:47:30.500Z,23.58
2017-12-03T16:49:58.065Z,23.55
2017-12-03T16:52:25.615Z,25.27
2017-12-03T16:54:53.186Z,24.23
2017-12-03T16:57:20.726Z,26.60
2017-12-03T16:59:48.270Z,25.25
2017-12-03T17:02:16.610Z,26.75
2017-12-03T17:04:44.151Z,24.25
2017-12-03T17:07:11.727Z,23.50
2017-12-03T17:09:39.262Z,25.35
2017-12-03T17:12:06.822Z,24.65
2017-12-03T17:14:34.390Z,24.10
2017-12-03T17:17:01.958Z,24.92
2017-12-03T17:19:29.499Z,24.23
2017-12-03T17:21:57.069Z,24.25
2017-12-03T17:24:24.618Z,23.08
2017-12-03T17:26:52.185Z,24.08
2017-12-03T17:29:19.722Z,23.70
2017-12-03T17:31:47.294Z,21.98
2017-12-03T17:34:14.844Z,24.25
2017-12-03T17:36:42.403Z,24.80
2017-12-03T17:39:09.943Z,25.90
2017-12-03T17:41:38.282Z,23.77
2017-12-03T17:44:05.834Z,24.70
2017-12-03T17:46:33.404Z,27.00
2017-12-03T17:49:00.962Z,24.70
2017-12-03T17:51:28.531Z,24.05
2017-12-03T17:53:56.079Z,23.80
2017-12-03T17:56:23.647Z,24.52
2017-12-03T17:58:51.195Z,22.58
2017-12-03T18:01:18.767Z,24.13
2017-12-03T18:03:46.319Z,23.80
2017-12-03T18:06:13.882Z,21.98
2017-12-03T18:08:41.430Z,24.35
2017-12-03T18:11:09.003Z,24.45
2017-12-03T18:13:36.584Z,25.08
2017-12-03T18:16:04.937Z,23.67
2017-12-03T18:18:32.492Z,23.15
2017-12-03T18:21:00.068Z,25.27
2017-12-03T18:23:27.617Z,27.62
2017-12-03T18:25:55.963Z,26.15
2017-12-03T18:28:23.510Z,26.52
2017-12-03T18:30:51.071Z,24.95
2017-12-03T18:33:18.623Z,23.95
2017-12-03T18:35:46.208Z,23.95
2017-12-03T18:38:13.763Z,25.00
2017-12-03T18:40:41.342Z,24.37
2017-12-03T18:43:08.897Z,24.35
2017-12-03T18:45:36.477Z,23.23
2017-12-03T18:48:04.028Z,22.73
2017-12-03T18:50:31.599Z,22.20
2017-12-03T18:52:59.142Z,23.62
2017-12-03T18:55:27.478Z,24.98
2017-12-03T18:57:55.789Z,21.75
2017-12-03T19:00:23.363Z,24.20
2017-12-03T19:02:50.907Z,24.00
2017-12-03T19:05:18.470Z,23.80
2017-12-03T19:07:46.035Z,22.83
2017-12-03T19:10:13.594Z,22.48
2017-12-03T19:12:41.160Z,21.10
2017-12-03T19:15:09.247Z,23.70
2017-12-03T19:17:37.026Z,22.42
2017-12-03T19:20:04.656Z,22.23
2017-12-03T19:22:32.231Z,24.60
2017-12-03T19:24:59.780Z,25.33
2017-12-03T19:27:27.466Z,24.67
2017-12-03T19:29:55.151Z,24.77
2017-12-03T19:32:23.664Z,25.25
2017-12-03T19:34:51.228Z,22.37
2017-12-03T19:37:18.883Z,21.12
2017-12-03T19:39:46.473Z,22.25
2017-12-03T19:42:14.085Z,21.17
2017-12-03T19:44:41.662Z,21.23
2017-12-03T19:47:09.226Z,22.00
2017-12-03T19:49:36.766Z,21.77
2017-12-03T19:52:05.102Z,20.52
2017-12-03T19:54:32.641Z,20.50
2017-12-03T19:57:00.207Z,21.58
2017-12-03T19:59:27.746Z,22.10
2017-12-03T20:01:55.316Z,21.83
2017-12-03T20:04:22.878Z,22.05
2017-12-03T20:06:50.455Z,19.98
2017-12-03T20:09:18.094Z,24.08
2017-12-03T20:11:45.687Z,22.20
2017-12-03T20:14:13.244Z,23.35
2017-12-03T20:16:40.811Z,24.70
2017-12-03T20:19:08.364Z,23.55
2017-12-03T20:21:35.935Z,23.10
2017-12-03T20:24:03.486Z,22.42
2017-12-03T20:26:31.042Z,23.57
2017-12-03T20:28:58.583Z,23.23
2017-12-03T20:31:26.146Z,23.17
2017-12-03T20:33:53.689Z,24.73
2017-12-03T20:36:21.255Z,23.43
2017-12-03T20:38:48.802Z,26.52
2017-12-03T20:41:16.372Z,23.45
2017-12-03T20:43:43.920Z,22.45
2017-12-03T20:46:11.491Z,24.85
2017-12-03T20:48:39.030Z,23.60
2017-12-03T20:51:06.599Z,23.17
2017-12-03T20:53:34.137Z,25.83
2017-12-03T20:56:02.484Z,23.92
2017-12-03T20:58:30.085Z,23.65
2017-12-03T21:00:57.595Z,25.95
2017-12-03T21:03:25.154Z,22.02
2017-12-03T21:05:52.698Z,24.25
2017-12-03T21:08:20.284Z,23.12
2017-12-03T21:10:47.827Z,24.65
2017-12-03T21:13:15.394Z,21.85
2017-12-03T21:15:42.938Z,23.77
2017-12-03T21:18:10.506Z,23.17
2017-12-03T21:20:38.043Z,24.35
2017-12-03T21:23:05.619Z,24.80
2017-12-03T21:25:33.157Z,23.15
2017-12-03T21:28:00.719Z,24.17
2017-12-03T21:30:28.257Z,26.62
2017-12-03T21:32:56.602Z,24.60
2017-12-03T21:35:24.153Z,24.45
2017-12-03T21:37:51.730Z,24.27
2017-12-03T21:40:19.262Z,24.67
2017-12-03T21:42:46.822Z,25.48
2017-12-03T21:45:14.357Z,23.80
2017-12-03T21:47:41.923Z,24.37
2017-12-03T21:50:09.461Z,24.73
2017-12-03T21:52:37.795Z,26.30
2017-12-03T21:55:05.336Z,25.65
2017-12-03T21:57:32.912Z,23.10
2017-12-03T22:00:08.934Z,22.58
2017-12-03T22:02:36.507Z,25.90
2017-12-03T22:05:04.050Z,22.67
2017-12-03T22:07:31.647Z,24.80
2017-12-03T22:09:59.226Z,24.98
2017-12-03T22:12:26.769Z,25.27
2017-12-03T22:14:54.377Z,22.02
2017-12-03T22:17:22.698Z,24.12
2017-12-03T22:19:50.266Z,23.50
2017-12-03T22:22:18.625Z,26.08
2017-12-03T22:24:46.185Z,25.97
2017-12-03T22:27:13.731Z,25.53
2017-12-03T22:29:41.294Z,25.73
2017-12-03T22:32:08.840Z,26.23
2017-12-03T22:34:36.416Z,22.85
2017-12-03T22:37:03.955Z,24.80
2017-12-03T22:39:32.287Z,24.58
2017-12-03T22:41:59.830Z,25.80
2017-12-03T22:44:27.394Z,25.42
2017-12-03T22:46:54.941Z,27.05
2017-12-03T22:49:22.513Z,24.83
2017-12-03T22:51:50.063Z,23.23
2017-12-03T22:54:17.631Z,25.33
2017-12-03T22:56:45.178Z,24.30
2017-12-03T22:59:12.750Z,22.52
2017-12-03T23:01:40.289Z,24.00
2017-12-03T23:04:07.862Z,20.37
2017-12-03T23:06:35.408Z,25.08
2017-12-03T23:09:02.962Z,24.42
2017-12-03T23:11:30.528Z,22.48
2017-12-03T23:13:58.074Z,22.65
2017-12-03T23:16:25.639Z,23.35
2017-12-03T23:18:53.938Z,21.40
2017-12-03T23:21:21.505Z,22.92
2017-12-03T23:23:49.044Z,22.60
2017-12-03T23:26:16.611Z,22.15
2017-12-03T23:28:44.162Z,22.62
2017-12-03T23:31:11.727Z,24.08
2017-12-03T23:33:39.317Z,23.42
2017-12-03T23:36:06.891Z,20.48
2017-12-03T23:38:34.445Z,24.63
2017-12-03T23:41:02.018Z,22.00
2017-12-03T23:43:29.576Z,23.23
2017-12-03T23:45:57.166Z,24.15
2017-12-03T23:48:25.473Z,21.87
2017-12-03T23:50:53.037Z,23.65
2017-12-03T23:53:20.579Z,24.67
2017-12-03T23:55:48.148Z,24.52
2017-12-03T23:58:15.696Z,23.83
